首页
METAR-TAF:

METAR-TAF

机场 :

平壤順安國際機場

平壤, 朝鲜民主主义人民共和国

纬度: 39-02N, 经度: 125-47E, 海拔: 36米

METAR: 丢失

时间: 10:21 (01:21 UTC)

预报

该预报发布于4小时和31分钟前的20:50 UTC
预报有效从05日的 00点(UTC)到 05日的 24点(UTC)
风速8节,风向西南
能見度: 6000
阴天层高于2000英尺
小雨
短暂存在
从 05日的 10点(UTC)到 05日的 24点(UTC)
风速14节,风向南转南东,有时为23节阵风
能見度: 2000
多云层高于1300英尺, 积雨云.
小阵雨

TAF: ZKPY 042050Z 0500/0524 22004MPS 6000 -RA OVC020 TX27/0506Z TN24/0521Z TEMPO 0510/0524 15007G12MPS 2000 -SHRA BKN013CB

超过4000个机场的气象观测和天气预报(METAR&TAF报告)。

可查询的气象台以黄色和红色小点在地图上表示。

将鼠标移到小点上方,可查看气象台名称。

然后点击查看天气观测和预报。

如需切换地图:点击带黑十字的绿色按钮放大地图;点击带横线的绿色按钮缩小地图;或者点击绿色箭头查看邻近地区的地图。


METAR-TAF: